createdAt,value
2017-03-01T00:00:03.778Z,96.21
2017-03-01T00:00:44.425Z,96.02
2017-03-01T00:01:25.089Z,96.12
2017-03-01T00:02:05.730Z,96.21
2017-03-01T00:02:46.374Z,96.21
2017-03-01T00:03:28.049Z,96.21
2017-03-01T00:04:08.712Z,96.5
2017-03-01T00:04:49.281Z,95.93
2017-03-01T00:05:29.940Z,96.02
2017-03-01T00:06:10.594Z,96.21
2017-03-01T00:06:51.240Z,96.12
2017-03-01T00:07:31.926Z,95.93
2017-03-01T00:08:12.543Z,96.4
2017-03-01T00:08:54.225Z,96.4
2017-03-01T00:09:34.884Z,96.4
2017-03-01T00:10:15.530Z,96.31
2017-03-01T00:10:56.184Z,96.4
2017-03-01T00:11:36.828Z,96.4
2017-03-01T00:12:17.489Z,96.4
2017-03-01T00:12:58.138Z,96.21
2017-03-01T00:13:38.800Z,96.97
2017-03-01T00:14:19.447Z,96.97
2017-03-01T00:15:00.110Z,96.97
2017-03-01T00:15:40.758Z,96.78
2017-03-01T00:16:21.419Z,96.88
2017-03-01T00:17:03.098Z,96.5
2017-03-01T00:17:44.753Z,96.88
2017-03-01T00:18:25.427Z,96.69
2017-03-01T00:19:06.066Z,96.88
2017-03-01T00:19:46.725Z,96.69
2017-03-01T00:20:27.404Z,96.78
2017-03-01T00:21:08.053Z,96.78
2017-03-01T00:21:48.680Z,96.69
2017-03-01T00:22:29.323Z,96.69
2017-03-01T00:23:09.979Z,96.78
2017-03-01T00:23:50.663Z,96.78
2017-03-01T00:24:31.286Z,96.78
2017-03-01T00:25:11.989Z,96.88
2017-03-01T00:25:52.678Z,96.78
2017-03-01T00:26:33.254Z,96.88
2017-03-01T00:27:13.998Z,96.78
2017-03-01T00:27:54.711Z,96.78
2017-03-01T00:28:35.405Z,96.69
2017-03-01T00:29:15.993Z,96.69
2017-03-01T00:29:56.616Z,96.69
2017-03-01T00:30:37.368Z,96.59
2017-03-01T00:31:18.051Z,96.69
2017-03-01T00:31:58.685Z,96.59
2017-03-01T00:32:39.363Z,96.78
2017-03-01T00:33:20.007Z,96.78
2017-03-01T00:34:00.660Z,96.73
2017-03-01T00:34:41.310Z,96.69
2017-03-01T00:35:21.974Z,96.83
2017-03-01T00:36:02.583Z,96.83
2017-03-01T00:36:43.171Z,96.73
2017-03-01T00:37:23.823Z,96.69
2017-03-01T00:38:05.515Z,96.55
2017-03-01T00:38:46.229Z,96.64
2017-03-01T00:39:26.787Z,96.73
2017-03-01T00:40:07.437Z,96.83
2017-03-01T00:40:48.131Z,96.73
2017-03-01T00:41:29.764Z,97.21
2017-03-01T00:42:10.319Z,97.21
2017-03-01T00:42:50.968Z,96.92
2017-03-01T00:43:31.663Z,96.92
2017-03-01T00:44:12.259Z,96.83
2017-03-01T00:44:52.814Z,97.11
2017-03-01T00:45:33.493Z,97.21
2017-03-01T00:46:14.124Z,97.11
2017-03-01T00:46:54.696Z,97.11
2017-03-01T00:47:35.352Z,97.11
2017-03-01T00:48:15.982Z,97.11
2017-03-01T00:48:56.554Z,96.92
2017-03-01T00:49:37.224Z,97.21
2017-03-01T00:50:17.819Z,96.73
2017-03-01T00:50:58.394Z,96.64
2017-03-01T00:51:39.069Z,96.64
2017-03-01T00:52:19.747Z,97.02
2017-03-01T00:53:00.451Z,97.02
2017-03-01T00:53:41.031Z,96.73
2017-03-01T00:54:21.659Z,96.73
2017-03-01T00:55:02.355Z,96.73
2017-03-01T00:55:43.003Z,97.02
2017-03-01T00:56:23.665Z,97.11
2017-03-01T00:57:04.311Z,97.02
2017-03-01T00:57:44.974Z,97.21
2017-03-01T00:58:25.616Z,97.21
2017-03-01T00:59:06.278Z,97.02
2017-03-01T00:59:46.922Z,96.73
2017-03-01T01:00:27.516Z,97.02
2017-03-01T01:01:08.178Z,97.02
2017-03-01T01:01:48.728Z,97.02
2017-03-01T01:02:29.389Z,97.21
2017-03-01T01:03:10.094Z,97.21
2017-03-01T01:03:50.789Z,97.02
2017-03-01T01:04:31.364Z,96.73
2017-03-01T01:05:12.004Z,97.21
2017-03-01T01:05:52.661Z,96.64
2017-03-01T01:06:33.296Z,96.73
2017-03-01T01:07:15.016Z,97.02
2017-03-01T01:07:55.658Z,96.83
2017-03-01T01:08:36.269Z,97.02
2017-03-01T01:09:16.959Z,97.02
2017-03-01T01:09:57.614Z,96.92
2017-03-01T01:10:38.246Z,96.92
2017-03-01T01:11:18.915Z,96.92
2017-03-01T01:12:00.600Z,97.11
2017-03-01T01:12:41.254Z,96.73
2017-03-01T01:13:21.882Z,96.92
2017-03-01T01:14:02.551Z,97.11
2017-03-01T01:14:43.186Z,96.83
2017-03-01T01:15:23.888Z,96.92
2017-03-01T01:16:05.618Z,97.02
2017-03-01T01:16:46.209Z,96.92
2017-03-01T01:17:26.827Z,97.11
2017-03-01T01:18:07.566Z,97.02
2017-03-01T01:18:48.231Z,97.02
2017-03-01T01:19:28.801Z,96.92
2017-03-01T01:20:09.436Z,97.11
2017-03-01T01:20:50.091Z,97.11
2017-03-01T01:21:30.759Z,97.02
2017-03-01T01:22:11.432Z,97.11
2017-03-01T01:22:52.049Z,97.11
2017-03-01T01:23:32.716Z,97.02
2017-03-01T01:24:13.367Z,97.02
2017-03-01T01:24:54.008Z,96.92
2017-03-01T01:25:35.724Z,97.02
2017-03-01T01:26:16.447Z,97.02
2017-03-01T01:26:57.027Z,97.02
2017-03-01T01:27:38.680Z,97.21
2017-03-01T01:28:20.300Z,97.02
2017-03-01T01:29:00.987Z,97.02
2017-03-01T01:29:41.561Z,97.21
2017-03-01T01:30:23.238Z,97.11
2017-03-01T01:31:04.957Z,97.02
2017-03-01T01:31:45.649Z,96.92
2017-03-01T01:32:26.209Z,97.02
2017-03-01T01:33:06.911Z,97.02
2017-03-01T01:33:47.549Z,96.73
2017-03-01T01:34:28.259Z,96.92
2017-03-01T01:35:08.832Z,96.92
2017-03-01T01:35:49.494Z,97.02
2017-03-01T01:36:30.145Z,97.02
2017-03-01T01:37:10.781Z,96.92
2017-03-01T01:37:52.477Z,96.92
2017-03-01T01:38:33.119Z,96.92
2017-03-01T01:39:14.801Z,96.83
2017-03-01T01:39:55.459Z,96.92
2017-03-01T01:40:36.096Z,96.83
2017-03-01T01:41:16.763Z,97.02
2017-03-01T01:41:57.411Z,97.02
2017-03-01T01:42:38.048Z,96.83
2017-03-01T01:43:18.715Z,97.02
2017-03-01T01:43:59.352Z,96.73
2017-03-01T01:44:40.030Z,97.02
2017-03-01T01:45:20.675Z,97.02
2017-03-01T01:46:01.326Z,96.92
2017-03-01T01:46:41.982Z,96.73
2017-03-01T01:47:22.642Z,96.73
2017-03-01T01:48:03.256Z,96.73
2017-03-01T01:48:43.936Z,96.73
2017-03-01T01:49:24.575Z,96.73
2017-03-01T01:50:05.245Z,96.83
2017-03-01T01:50:45.877Z,96.73
2017-03-01T01:51:26.467Z,96.73
2017-03-01T01:52:07.098Z,96.64
2017-03-01T01:52:47.731Z,96.83
2017-03-01T01:53:28.319Z,97.02
2017-03-01T01:54:08.958Z,96.64
2017-03-01T01:54:49.693Z,96.64
2017-03-01T01:55:30.263Z,97.11
2017-03-01T01:56:10.916Z,97.02
2017-03-01T01:56:51.559Z,97.02
2017-03-01T01:57:33.259Z,96.64
2017-03-01T01:58:13.906Z,97.11
2017-03-01T01:58:54.539Z,97.02
2017-03-01T01:59:35.203Z,96.64
2017-03-01T02:00:15.876Z,96.73
2017-03-01T02:00:56.495Z,96.73
2017-03-01T02:01:37.077Z,96.64
2017-03-01T02:02:17.714Z,96.73
2017-03-01T02:02:58.343Z,96.73
2017-03-01T02:03:39.007Z,96.73
2017-03-01T02:04:19.689Z,96.92
2017-03-01T02:05:00.322Z,96.92
2017-03-01T02:05:40.956Z,97.02
2017-03-01T02:06:21.612Z,96.73
2017-03-01T02:07:02.271Z,96.73
2017-03-01T02:07:42.908Z,97.02
2017-03-01T02:08:23.567Z,97.02
2017-03-01T02:09:05.238Z,96.73
2017-03-01T02:09:45.899Z,96.73
2017-03-01T02:10:26.479Z,96.92
2017-03-01T02:11:07.126Z,96.92
2017-03-01T02:11:47.785Z,97.02
2017-03-01T02:12:28.424Z,96.92
2017-03-01T02:13:09.091Z,96.92
2017-03-01T02:13:49.741Z,97.02
2017-03-01T02:14:30.362Z,97.02
2017-03-01T02:15:11.071Z,97.02
2017-03-01T02:15:51.792Z,97.02
2017-03-01T02:16:33.485Z,96.83
2017-03-01T02:17:14.136Z,96.92
2017-03-01T02:17:54.775Z,96.92
2017-03-01T02:18:35.436Z,97.02
2017-03-01T02:19:18.128Z,96.92
2017-03-01T02:19:58.791Z,97.02
2017-03-01T02:20:40.480Z,96.83
2017-03-01T02:21:21.113Z,96.92
2017-03-01T02:22:03.849Z,96.83
2017-03-01T02:22:44.565Z,96.92
2017-03-01T02:23:25.231Z,96.73
2017-03-01T02:24:05.884Z,96.83
2017-03-01T02:24:46.525Z,96.64
2017-03-01T02:25:27.177Z,96.64
2017-03-01T02:26:07.889Z,97.02
2017-03-01T02:26:48.562Z,97.02
2017-03-01T02:27:29.166Z,97.02
2017-03-01T02:28:09.785Z,96.55
2017-03-01T02:28:50.480Z,97.02
2017-03-01T02:29:31.221Z,97.02
2017-03-01T02:30:11.777Z,97.11
2017-03-01T02:30:53.424Z,96.92
2017-03-01T02:31:36.123Z,97.02
2017-03-01T02:32:16.792Z,97.11
2017-03-01T02:32:57.430Z,97.11
2017-03-01T02:33:38.083Z,97.11
2017-03-01T02:34:18.734Z,96.92
2017-03-01T02:34:59.403Z,96.92
2017-03-01T02:35:40.056Z,97.06
2017-03-01T02:36:20.717Z,96.92
2017-03-01T02:37:02.370Z,97.11
2017-03-01T02:37:43.025Z,96.92
2017-03-01T02:38:24.712Z,97.11
2017-03-01T02:39:05.370Z,97.11
2017-03-01T02:39:46.004Z,96.92
2017-03-01T02:40:26.669Z,97.11
2017-03-01T02:41:07.329Z,97.11
2017-03-01T02:41:47.966Z,96.83
2017-03-01T02:42:28.626Z,97.21
2017-03-01T02:43:16.234Z,96.92
2017-03-01T02:43:56.889Z,97.11
2017-03-01T02:44:37.540Z,96.83
2017-03-01T02:45:18.191Z,96.83
2017-03-01T02:45:58.882Z,96.92
2017-03-01T02:46:39.585Z,97.11
2017-03-01T02:47:20.160Z,97.21
2017-03-01T02:48:00.804Z,97.06
2017-03-01T02:48:41.507Z,97.06
2017-03-01T02:49:23.220Z,97.06
2017-03-01T02:50:03.788Z,96.83
2017-03-01T02:50:44.467Z,97.21
2017-03-01T02:51:26.161Z,97.16
2017-03-01T02:52:06.859Z,96.78
2017-03-01T02:52:47.418Z,96.78
2017-03-01T02:53:28.090Z,96.78
2017-03-01T02:54:08.769Z,96.78
2017-03-01T02:54:49.465Z,97.16
2017-03-01T02:55:30.038Z,96.78
2017-03-01T02:56:10.697Z,97.06
2017-03-01T02:56:51.325Z,97.16
2017-03-01T02:57:31.908Z,97.06
2017-03-01T02:58:12.554Z,97.06
2017-03-01T02:58:55.277Z,97.06
2017-03-01T02:59:35.832Z,97.25
2017-03-01T03:00:16.562Z,97.06
2017-03-01T03:00:58.224Z,97.16
2017-03-01T03:01:38.909Z,96.88
2017-03-01T03:02:20.573Z,97.06
2017-03-01T03:03:01.219Z,97.06
2017-03-01T03:03:41.870Z,97.25
2017-03-01T03:04:22.517Z,97.16
2017-03-01T03:05:03.165Z,96.78
2017-03-01T03:05:43.839Z,97.25
2017-03-01T03:06:26.525Z,97.16
2017-03-01T03:07:08.216Z,97.16
2017-03-01T03:07:48.861Z,97.06
2017-03-01T03:08:29.513Z,97.06
2017-03-01T03:09:11.205Z,97.16
2017-03-01T03:09:53.891Z,96.88
2017-03-01T03:10:34.581Z,97.06
2017-03-01T03:11:15.285Z,97.06
2017-03-01T03:11:55.843Z,97.11
2017-03-01T03:12:36.489Z,97.06
2017-03-01T03:13:17.190Z,97.06
2017-03-01T03:13:57.886Z,97.16
2017-03-01T03:14:38.450Z,97.06
2017-03-01T03:15:20.146Z,97.06
2017-03-01T03:16:00.806Z,97.06
2017-03-01T03:16:41.460Z,97.16
2017-03-01T03:17:22.096Z,97.06
2017-03-01T03:18:02.740Z,97.16
2017-03-01T03:18:43.423Z,97.4
2017-03-01T03:19:24.179Z,97.11
2017-03-01T03:20:04.907Z,97.06
2017-03-01T03:20:56.318Z,97.06
2017-03-01T03:21:36.979Z,97.21
2017-03-01T03:22:17.637Z,97.11
2017-03-01T03:22:58.280Z,97.16
2017-03-01T03:23:39.946Z,97.11
2017-03-01T03:24:20.618Z,97.06
2017-03-01T03:25:03.312Z,97.16
2017-03-01T03:25:44.007Z,97.21
2017-03-01T03:26:24.707Z,97.21
2017-03-01T03:27:05.268Z,97.11
2017-03-01T03:27:45.924Z,97.21
2017-03-01T03:28:26.533Z,97.11
2017-03-01T03:29:08.238Z,97.11
2017-03-01T03:29:48.813Z,96.92
2017-03-01T03:30:29.437Z,96.92
2017-03-01T03:31:10.104Z,97.11
2017-03-01T03:31:50.768Z,97.11
2017-03-01T03:32:32.465Z,97.11
2017-03-01T03:33:14.115Z,97.11
2017-03-01T03:33:54.781Z,97.11
2017-03-01T03:34:36.459Z,97.11
2017-03-01T03:35:17.181Z,97.11
2017-03-01T03:35:57.849Z,97.11
2017-03-01T03:36:39.526Z,97.11
2017-03-01T03:37:20.179Z,97.3
2017-03-01T03:38:00.845Z,97.11
2017-03-01T03:38:47.320Z,97.21
2017-03-01T03:39:27.969Z,96.83
2017-03-01T03:40:08.624Z,96.92
2017-03-01T03:40:49.279Z,97.21
2017-03-01T03:41:30.955Z,97.3
2017-03-01T03:42:11.623Z,96.92
2017-03-01T03:42:53.296Z,96.83
2017-03-01T03:43:34.950Z,96.83
2017-03-01T03:44:15.611Z,96.83
2017-03-01T03:44:56.265Z,96.83
2017-03-01T03:45:36.910Z,96.92
2017-03-01T03:46:17.526Z,97.11
2017-03-01T03:47:04.785Z,97.11
2017-03-01T03:47:47.481Z,97.11
2017-03-01T03:48:28.042Z,96.92
2017-03-01T03:49:08.696Z,97.11
2017-03-01T03:49:54.978Z,96.92
2017-03-01T03:50:35.524Z,96.64
2017-03-01T03:51:16.198Z,96.73
2017-03-01T03:52:03.638Z,97.02
2017-03-01T03:52:45.349Z,96.92
2017-03-01T03:53:25.910Z,96.92
2017-03-01T03:54:08.624Z,97.11
2017-03-01T03:54:49.322Z,96.92
2017-03-01T03:55:30.009Z,97.11
2017-03-01T03:56:11.686Z,96.92
2017-03-01T03:56:53.370Z,97.02
2017-03-01T03:57:36.063Z,97.21
2017-03-01T03:58:17.747Z,97.02
2017-03-01T03:58:58.393Z,96.55
2017-03-01T03:59:40.072Z,97.21
2017-03-01T04:00:20.640Z,97.11
2017-03-01T04:01:01.309Z,97.02
2017-03-01T04:01:42.960Z,97.11
2017-03-01T04:02:23.523Z,97.11
2017-03-01T04:03:04.177Z,97.59
2017-03-01T04:03:44.918Z,96.92
2017-03-01T04:04:25.484Z,97.68
2017-03-01T04:05:06.147Z,97.78
2017-03-01T04:05:46.770Z,97.68
2017-03-01T04:06:27.322Z,97.68
2017-03-01T04:07:07.995Z,97.59
2017-03-01T04:07:48.632Z,97.59
2017-03-01T04:08:29.334Z,97.59
2017-03-01T04:09:10.061Z,97.68
2017-03-01T04:09:50.707Z,97.68
2017-03-01T04:10:32.382Z,97.68
2017-03-01T04:11:14.116Z,97.68
2017-03-01T04:11:54.794Z,97.68
2017-03-01T04:12:35.364Z,97.68
2017-03-01T04:13:16.122Z,97.68
2017-03-01T04:13:56.813Z,97.68
2017-03-01T04:14:38.544Z,97.87
2017-03-01T04:15:19.112Z,97.3
2017-03-01T04:15:59.861Z,97.4
2017-03-01T04:16:41.565Z,97.59
2017-03-01T04:17:22.265Z,97.59
2017-03-01T04:18:02.841Z,97.4
2017-03-01T04:18:43.499Z,97.4
2017-03-01T04:19:24.186Z,97.4
2017-03-01T04:20:06.941Z,97.3
2017-03-01T04:20:47.697Z,97.49
2017-03-01T04:21:28.339Z,97.49
2017-03-01T04:22:10.013Z,97.21
2017-03-01T04:22:50.677Z,97.3
2017-03-01T04:23:31.354Z,97.3
2017-03-01T04:24:13.114Z,97.78
2017-03-01T04:24:58.464Z,97.21
2017-03-01T04:25:39.053Z,97.3
2017-03-01T04:26:19.808Z,97.3
2017-03-01T04:27:01.465Z,97.21
2017-03-01T04:27:42.228Z,97.3
2017-03-01T04:28:22.973Z,97.49
2017-03-01T04:29:04.655Z,97.21
2017-03-01T04:29:45.300Z,97.59
2017-03-01T04:30:25.964Z,97.78
2017-03-01T04:31:08.661Z,97.59
2017-03-01T04:31:50.336Z,97.49
2017-03-01T04:32:30.985Z,97.49
2017-03-01T04:33:11.622Z,97.59
2017-03-01T04:33:54.337Z,97.68
2017-03-01T04:34:36.030Z,97.68
2017-03-01T04:35:17.716Z,97.78
2017-03-01T04:35:58.444Z,97.59
2017-03-01T04:36:40.115Z,97.4
2017-03-01T04:37:21.814Z,97.49
2017-03-01T04:38:02.558Z,97.49
2017-03-01T04:38:44.233Z,97.49
2017-03-01T04:39:24.904Z,97.59
2017-03-01T04:40:05.641Z,97.78
2017-03-01T04:40:46.295Z,97.49
2017-03-01T04:41:27.066Z,97.59
2017-03-01T04:42:07.809Z,97.59
2017-03-01T04:42:48.458Z,97.59
2017-03-01T04:43:29.112Z,98.16
2017-03-01T04:44:09.766Z,97.59
2017-03-01T04:44:50.522Z,98.25
2017-03-01T04:45:31.173Z,97.97
2017-03-01T04:46:11.869Z,98.44
2017-03-01T04:46:53.602Z,97.87
2017-03-01T04:47:34.175Z,97.97
2017-03-01T04:48:14.915Z,98.06
2017-03-01T04:48:55.616Z,98.06
2017-03-01T04:49:47.987Z,98.25
2017-03-01T04:50:28.546Z,98.16
2017-03-01T04:51:09.196Z,97.87
2017-03-01T04:51:49.848Z,98.06
2017-03-01T04:52:35.324Z,98.16
2017-03-01T04:53:16.998Z,98.16
2017-03-01T04:54:03.282Z,97.78
2017-03-01T04:54:43.979Z,98.06
2017-03-01T04:55:26.642Z,97.87
2017-03-01T04:56:07.387Z,98.44
2017-03-01T04:56:49.069Z,98.35
2017-03-01T04:57:29.831Z,98.63
2017-03-01T04:58:11.501Z,98.35
2017-03-01T04:58:52.150Z,98.44
2017-03-01T04:59:32.840Z,98.63
2017-03-01T05:00:13.572Z,98.63
2017-03-01T05:00:58.826Z,98.44
2017-03-01T05:01:39.508Z,98.44
2017-03-01T05:02:20.076Z,98.44
2017-03-01T05:03:00.647Z,98.25
2017-03-01T05:03:41.338Z,98.82
2017-03-01T05:04:21.935Z,98.44
2017-03-01T05:05:02.626Z,98.44
2017-03-01T05:05:43.182Z,98.82
2017-03-01T05:06:23.843Z,98.44
2017-03-01T05:07:04.605Z,98.25
2017-03-01T05:07:45.349Z,98.35
2017-03-01T05:08:28.050Z,98.54
2017-03-01T05:09:09.746Z,98.35
2017-03-01T05:09:50.473Z,98.35
2017-03-01T05:10:32.175Z,98.35
2017-03-01T05:11:12.925Z,98.35
2017-03-01T05:11:53.706Z,98.44
2017-03-01T05:12:34.431Z,98.35
2017-03-01T05:13:15.186Z,98.54
2017-03-01T05:13:55.868Z,98.16
2017-03-01T05:14:36.602Z,98.25
2017-03-01T05:15:17.348Z,98.16
2017-03-01T05:15:59.030Z,98.16
2017-03-01T05:16:39.765Z,98.25
2017-03-01T05:17:20.317Z,98.16
2017-03-01T05:18:01.068Z,98.16
2017-03-01T05:18:41.818Z,98.35
2017-03-01T05:19:22.382Z,98.35
2017-03-01T05:20:03.041Z,98.54
2017-03-01T05:20:45.728Z,98.16
2017-03-01T05:21:26.269Z,98.06
2017-03-01T05:22:07.887Z,98.06
2017-03-01T05:22:48.615Z,98.16
2017-03-01T05:23:29.164Z,98.16
2017-03-01T05:24:09.833Z,98.06
2017-03-01T05:24:50.577Z,98.25
2017-03-01T05:25:31.133Z,98.25
2017-03-01T05:26:11.877Z,98.44
2017-03-01T05:26:52.475Z,98.25
2017-03-01T05:27:39.015Z,98.44
2017-03-01T05:28:19.599Z,98.35
2017-03-01T05:29:00.344Z,98.44
2017-03-01T05:29:42.093Z,98.35
2017-03-01T05:30:22.765Z,98.06
2017-03-01T05:31:03.406Z,98.06
2017-03-01T05:31:49.827Z,98.06
2017-03-01T05:32:31.623Z,98.06
2017-03-01T05:33:12.381Z,98.06
2017-03-01T05:33:54.128Z,98.16
2017-03-01T05:34:41.855Z,98.44
2017-03-01T05:35:24.586Z,98.16
2017-03-01T05:36:06.329Z,98.06
2017-03-01T05:36:51.777Z,98.16
2017-03-01T05:37:32.446Z,98.16
2017-03-01T05:38:14.128Z,98.16
2017-03-01T05:38:54.904Z,98.16
2017-03-01T05:39:35.656Z,98.16
2017-03-01T05:40:16.384Z,98.35
2017-03-01T05:40:58.097Z,98.25
2017-03-01T05:41:40.716Z,98.25
2017-03-01T05:42:21.409Z,98.44
2017-03-01T05:43:01.958Z,98.35
2017-03-01T05:43:43.648Z,97.97
2017-03-01T05:44:24.338Z,98.16
2017-03-01T05:45:05.041Z,98.35
2017-03-01T05:45:45.611Z,98.35
2017-03-01T05:46:26.381Z,98.82
2017-03-01T05:47:06.938Z,98.06
2017-03-01T05:47:48.651Z,98.35
2017-03-01T05:48:29.220Z,98.35
2017-03-01T05:49:09.885Z,98.35
2017-03-01T05:49:51.668Z,98.82
2017-03-01T05:50:32.233Z,98.06
2017-03-01T05:51:13.004Z,98.06
2017-03-01T05:51:54.596Z,98.16
2017-03-01T05:52:35.294Z,98.25
2017-03-01T05:53:15.845Z,98.16
2017-03-01T05:53:56.861Z,98.16
2017-03-01T05:54:38.536Z,98.25
2017-03-01T05:55:20.261Z,98.25
2017-03-01T05:56:01.016Z,98.25
2017-03-01T05:56:42.705Z,98.25
2017-03-01T05:57:23.458Z,98.63
2017-03-01T05:58:09.020Z,98.16
2017-03-01T05:58:49.774Z,98.63
2017-03-01T05:59:32.477Z,98.16
2017-03-01T06:00:19.059Z,98.72
2017-03-01T06:00:59.610Z,98.25
2017-03-01T06:01:40.381Z,98.54
2017-03-01T06:02:22.106Z,98.35
2017-03-01T06:03:04.876Z,98.35
2017-03-01T06:03:46.691Z,98.54
2017-03-01T06:04:27.451Z,98.63
2017-03-01T06:05:08.180Z,98.63
2017-03-01T06:05:48.913Z,98.44
2017-03-01T06:06:29.653Z,98.35
2017-03-01T06:07:11.345Z,98.44
2017-03-01T06:07:53.034Z,98.25
2017-03-01T06:08:33.804Z,98.44
2017-03-01T06:09:14.539Z,98.54
2017-03-01T06:09:55.273Z,98.54
2017-03-01T06:10:37.990Z,98.54
2017-03-01T06:11:18.546Z,98.35
2017-03-01T06:11:59.299Z,98.54
2017-03-01T06:12:41.028Z,98.44
2017-03-01T06:13:21.729Z,98.44
2017-03-01T06:14:02.302Z,98.35
2017-03-01T06:14:43.041Z,98.44
2017-03-01T06:15:23.734Z,98.44
2017-03-01T06:16:04.536Z,98.63
2017-03-01T06:16:45.124Z,98.54
2017-03-01T06:17:26.884Z,98.63
2017-03-01T06:18:07.585Z,98.35
2017-03-01T06:18:48.275Z,98.91
2017-03-01T06:19:28.849Z,98.63
2017-03-01T06:20:09.580Z,98.63
2017-03-01T06:20:50.312Z,98.91
2017-03-01T06:21:32.017Z,98.91
2017-03-01T06:22:12.592Z,99.2
2017-03-01T06:22:53.345Z,99.01
2017-03-01T06:23:34.139Z,99.2
2017-03-01T06:24:14.832Z,99.1
2017-03-01T06:24:55.382Z,99.2
2017-03-01T06:25:36.059Z,99.2
2017-03-01T06:26:16.656Z,99.1
2017-03-01T06:26:57.218Z,98.72
2017-03-01T06:27:37.779Z,98.72
2017-03-01T06:28:18.580Z,98.82
2017-03-01T06:28:59.267Z,98.82
2017-03-01T06:29:39.858Z,99.01
2017-03-01T06:30:20.486Z,98.82
2017-03-01T06:31:01.278Z,99.01
2017-03-01T06:31:43.086Z,98.72
2017-03-01T06:32:23.791Z,99.01
2017-03-01T06:33:11.346Z,98.82
2017-03-01T06:33:51.988Z,98.72
2017-03-01T06:34:37.505Z,98.82
2017-03-01T06:35:19.276Z,98.77
2017-03-01T06:35:59.829Z,98.96
2017-03-01T06:36:41.452Z,98.87
2017-03-01T06:37:22.114Z,98.58
2017-03-01T06:38:02.672Z,98.96
2017-03-01T06:38:44.439Z,98.58
2017-03-01T06:39:25.071Z,98.77
2017-03-01T06:40:05.652Z,98.77
2017-03-01T06:40:46.295Z,98.58
2017-03-01T06:41:27.036Z,99.06
2017-03-01T06:42:07.598Z,98.87
2017-03-01T06:42:49.299Z,98.87
2017-03-01T06:43:29.927Z,99.06
2017-03-01T06:44:10.622Z,99.06
2017-03-01T06:44:51.333Z,99.34
2017-03-01T06:45:32.001Z,99.15
2017-03-01T06:46:13.682Z,99.44
2017-03-01T06:46:54.317Z,99.25
2017-03-01T06:47:34.957Z,99.44
2017-03-01T06:48:15.523Z,99.25
2017-03-01T06:48:56.185Z,99.25
2017-03-01T06:49:36.827Z,99.06
2017-03-01T06:50:17.482Z,99.25
2017-03-01T06:50:58.249Z,98.87
2017-03-01T06:51:38.901Z,98.87
2017-03-01T06:52:19.555Z,99.06
2017-03-01T06:53:00.197Z,98.87
2017-03-01T06:53:40.871Z,99.06
2017-03-01T06:54:21.509Z,99.25
2017-03-01T06:55:02.404Z,99.25
2017-03-01T06:55:43.033Z,99.34
2017-03-01T06:56:23.703Z,99.25
2017-03-01T06:57:04.302Z,99.34
2017-03-01T06:57:44.857Z,99.25
2017-03-01T06:58:25.524Z,99.34
2017-03-01T06:59:06.214Z,99.99
2017-03-01T06:59:46.907Z,99.82
2017-03-01T07:00:27.528Z,99.91
2017-03-01T07:01:08.145Z,99.91
2017-03-01T07:01:48.723Z,99.82
2017-03-01T07:02:29.319Z,99.82
2017-03-01T07:03:09.918Z,99.96
2017-03-01T07:03:50.479Z,99.63
2017-03-01T07:04:31.149Z,99.91
2017-03-01T07:05:11.784Z,99.72
2017-03-01T07:05:52.384Z,99.53
2017-03-01T07:06:33.034Z,99.53
2017-03-01T07:07:13.692Z,99.99
2017-03-01T07:07:54.269Z,99.99
2017-03-01T07:08:34.951Z,99.99
2017-03-01T07:09:15.607Z,99.99
2017-03-01T07:09:56.260Z,99.99
2017-03-01T07:10:36.913Z,99.96
2017-03-01T07:11:18.218Z,99.99
2017-03-01T07:11:58.783Z,99.96
2017-03-01T07:12:39.454Z,99.99
2017-03-01T07:13:20.149Z,99.77
2017-03-01T07:14:00.831Z,99.77
2017-03-01T07:14:41.407Z,99.87
2017-03-01T07:15:22.062Z,99.96
2017-03-01T07:16:03.671Z,99.96
2017-03-01T07:16:44.279Z,99.87
2017-03-01T07:17:24.923Z,99.96
2017-03-01T07:18:05.603Z,99.99
2017-03-01T07:18:46.240Z,99.99
2017-03-01T07:19:26.884Z,99.68
2017-03-01T07:20:07.546Z,99.49
2017-03-01T07:20:48.187Z,99.99
2017-03-01T07:21:28.845Z,99.99
2017-03-01T07:22:09.512Z,99.99
2017-03-01T07:22:51.191Z,99.99
2017-03-01T07:23:32.848Z,99.99
2017-03-01T07:24:13.518Z,99.99
2017-03-01T07:24:54.226Z,99.99
2017-03-01T07:25:34.912Z,99.99
2017-03-01T07:26:15.578Z,99.99
2017-03-01T07:26:56.269Z,99.99
2017-03-01T07:27:36.865Z,99.99
2017-03-01T07:28:17.428Z,99.99
2017-03-01T07:28:58.099Z,99.99
2017-03-01T07:29:38.774Z,99.99
2017-03-01T07:30:19.368Z,99.99
2017-03-01T07:30:59.929Z,99.99
2017-03-01T07:31:40.580Z,99.99
2017-03-01T07:32:21.240Z,99.99
2017-03-01T07:33:01.888Z,99.99
2017-03-01T07:33:43.564Z,99.99
2017-03-01T07:34:25.240Z,99.99
2017-03-01T07:35:05.893Z,99.99
2017-03-01T07:35:46.463Z,99.99
2017-03-01T07:36:27.114Z,99.99
2017-03-01T07:37:08.774Z,99.99
2017-03-01T07:37:49.447Z,99.99
2017-03-01T07:38:30.101Z,99.99
2017-03-01T07:39:10.739Z,99.99
2017-03-01T07:39:51.417Z,99.99
2017-03-01T07:40:32.038Z,99.99
2017-03-01T07:41:12.697Z,99.99
2017-03-01T07:41:54.367Z,99.99
2017-03-01T07:42:34.975Z,99.99
2017-03-01T07:43:15.589Z,99.99
2017-03-01T07:43:56.268Z,99.99
2017-03-01T07:44:36.862Z,99.99
2017-03-01T07:45:17.428Z,99.99
2017-03-01T07:45:58.099Z,99.49
2017-03-01T07:46:38.782Z,99.99
2017-03-01T07:47:20.200Z,99.99
2017-03-01T07:48:00.776Z,99.68
2017-03-01T07:48:41.429Z,99.96
2017-03-01T07:49:22.106Z,99.87
2017-03-01T07:50:02.674Z,99.99
2017-03-01T07:50:43.278Z,99.96
2017-03-01T07:51:23.981Z,99.99
2017-03-01T07:52:04.675Z,99.87
2017-03-01T07:52:45.242Z,99.99
2017-03-01T07:53:25.895Z,99.87
2017-03-01T07:54:06.577Z,99.87
2017-03-01T07:54:47.181Z,99.87
2017-03-01T07:55:27.782Z,99.77
2017-03-01T07:56:08.405Z,99.77
2017-03-01T07:56:49.059Z,99.96
2017-03-01T07:57:29.772Z,99.99
2017-03-01T07:58:10.563Z,99.96
2017-03-01T07:58:51.212Z,99.99
2017-03-01T07:59:31.890Z,99.99
2017-03-01T08:00:12.534Z,99.99
2017-03-01T08:00:53.175Z,99.99
2017-03-01T08:01:33.839Z,99.99
2017-03-01T08:02:14.491Z,99.99
2017-03-01T08:02:55.158Z,99.99
2017-03-01T08:03:35.842Z,99.99
2017-03-01T08:04:16.534Z,99.99
2017-03-01T08:04:57.230Z,99.96
2017-03-01T08:05:37.840Z,99.99
2017-03-01T08:06:18.526Z,99.87
2017-03-01T08:06:59.200Z,99.99
2017-03-01T08:07:39.800Z,99.87
2017-03-01T08:08:20.493Z,99.96
2017-03-01T08:09:01.113Z,99.96
2017-03-01T08:09:41.776Z,99.73
2017-03-01T08:10:22.421Z,99.91
2017-03-01T08:11:03.107Z,99.87
2017-03-01T08:11:43.726Z,99.87
2017-03-01T08:12:24.407Z,99.63
2017-03-01T08:13:05.030Z,99.73
2017-03-01T08:13:45.678Z,99.87
2017-03-01T08:14:26.347Z,99.73
2017-03-01T08:15:06.981Z,99.82
2017-03-01T08:15:47.650Z,99.82
2017-03-01T08:16:28.296Z,99.99
2017-03-01T08:17:08.955Z,99.99
2017-03-01T08:17:49.606Z,99.82
2017-03-01T08:18:30.259Z,99.82
2017-03-01T08:19:11.933Z,99.99
2017-03-01T08:19:52.632Z,99.44
2017-03-01T08:20:33.288Z,99.26
2017-03-01T08:21:15.023Z,99.54
2017-03-01T08:21:55.564Z,99.35
2017-03-01T08:22:36.237Z,99.35
2017-03-01T08:23:16.935Z,99.26
2017-03-01T08:23:57.611Z,99.54
2017-03-01T08:24:38.209Z,99.63
2017-03-01T08:25:18.853Z,99.16
2017-03-01T08:25:59.534Z,99.35
2017-03-01T08:26:40.175Z,99.73
2017-03-01T08:27:20.875Z,99.63
2017-03-01T08:28:01.536Z,99.44
2017-03-01T08:28:43.217Z,99.44
2017-03-01T08:29:23.860Z,99.16
2017-03-01T08:30:04.529Z,99.35
2017-03-01T08:30:45.170Z,99.54
2017-03-01T08:31:26.847Z,99.35
2017-03-01T08:32:07.502Z,99.35
2017-03-01T08:32:48.152Z,99.16
2017-03-01T08:33:28.808Z,99.16
2017-03-01T08:34:09.453Z,98.68
2017-03-01T08:34:51.153Z,98.87
2017-03-01T08:35:31.892Z,99.06
2017-03-01T08:36:12.548Z,99.06
2017-03-01T08:36:55.289Z,98.78
2017-03-01T08:37:36.919Z,98.97
2017-03-01T08:38:18.599Z,99.06
2017-03-01T08:39:00.296Z,98.97
2017-03-01T08:39:40.937Z,99.06
2017-03-01T08:40:22.606Z,99.35
2017-03-01T08:41:07.981Z,99.26
2017-03-01T08:41:48.623Z,99.06
2017-03-01T08:42:30.425Z,99.06
2017-03-01T08:43:11.060Z,98.68
2017-03-01T08:43:51.707Z,98.78
2017-03-01T08:44:32.358Z,98.4
2017-03-01T08:45:13.008Z,98.59
2017-03-01T08:45:53.668Z,98.59
2017-03-01T08:46:34.329Z,98.68
2017-03-01T08:47:14.979Z,98.59
2017-03-01T08:47:55.572Z,98.4
2017-03-01T08:48:36.257Z,98.78